Terminal Aerodrome Forecast
Issued by NWS Sioux Falls, SD

Home | Current Version | Previous Version | Text Only | Print | Product List | Glossary On
Versions: 1 2 3 4 5 6 7 8 9 10 11 12 13 14 15 16 17 18 19 20 21
952
FTUS43 KFSD 290608 AAA
TAFHON
TAF AMD
KHON 290608Z 2906/3006 VRB06KT P6SM SCT015 OVC050
     FM291000 VRB03KT P6SM OVC022
     FM291600 07009KT P6SM OVC035
     FM300100 05005KT P6SM BKN120=

USA.gov is the U.S. government's official web portal to all federal, state and local government web resources and services.